createdAt,value
2019-05-18T00:01:29.611Z,1.70
2019-05-18T00:03:58.307Z,1.40
2019-05-18T00:06:27.017Z,1.40
2019-05-18T00:08:55.714Z,1.60
2019-05-18T00:11:24.411Z,1.50
2019-05-18T00:13:53.114Z,1.40
2019-05-18T00:16:21.803Z,1.27
2019-05-18T00:18:50.562Z,1.20
2019-05-18T00:21:19.203Z,1.30
2019-05-18T00:23:47.907Z,1.30
2019-05-18T00:26:16.603Z,1.30
2019-05-18T00:28:45.308Z,1.20
2019-05-18T00:31:14.007Z,1.30
2019-05-18T00:33:42.699Z,1.00
2019-05-18T00:36:11.407Z,1.63
2019-05-18T00:38:40.114Z,1.20
2019-05-18T00:41:08.795Z,1.40
2019-05-18T00:43:37.491Z,1.53
2019-05-18T00:46:06.398Z,1.23
2019-05-18T00:48:35.089Z,1.40
2019-05-18T00:51:03.869Z,1.40
2019-05-18T00:53:33.085Z,1.20
2019-05-18T00:56:01.807Z,1.90
2019-05-18T00:58:30.594Z,1.30
2019-05-18T01:00:59.252Z,1.17
2019-05-18T01:03:27.952Z,1.40
2019-05-18T01:05:56.659Z,1.20
2019-05-18T01:08:25.367Z,1.50
2019-05-18T01:10:54.078Z,1.40
2019-05-18T01:13:22.771Z,1.33
2019-05-18T01:15:51.464Z,1.30
2019-05-18T01:18:20.319Z,1.37
2019-05-18T01:20:50.615Z,1.60
2019-05-18T01:23:19.307Z,1.17
2019-05-18T01:25:48.027Z,1.30
2019-05-18T01:28:16.714Z,1.13
2019-05-18T01:30:45.720Z,1.40
2019-05-18T01:33:14.416Z,1.20
2019-05-18T01:35:43.115Z,1.20
2019-05-18T01:38:11.810Z,1.20
2019-05-18T01:40:40.516Z,1.10
2019-05-18T01:43:09.311Z,1.33
2019-05-18T01:45:38.012Z,1.47
2019-05-18T01:48:14.109Z,1.07
2019-05-18T01:50:37.055Z,1.67
2019-05-18T01:53:05.760Z,1.30
2019-05-18T01:55:34.500Z,1.53
2019-05-18T01:58:03.173Z,1.27
2019-05-18T02:00:31.871Z,1.10
2019-05-18T02:03:00.567Z,1.20
2019-05-18T02:05:29.265Z,1.37
2019-05-18T02:07:58.135Z,1.30
2019-05-18T02:10:26.835Z,1.33
2019-05-18T02:12:55.531Z,1.40
2019-05-18T02:15:24.232Z,1.40
2019-05-18T02:17:52.924Z,1.97
2019-05-18T02:20:21.623Z,1.27
2019-05-18T02:22:50.319Z,1.47
2019-05-18T02:25:19.319Z,1.53
2019-05-18T02:27:48.016Z,1.27
2019-05-18T02:30:18.096Z,1.40
2019-05-18T02:32:46.791Z,1.30
2019-05-18T02:35:16.985Z,1.43
2019-05-18T02:37:45.726Z,1.40
2019-05-18T02:40:14.584Z,1.40
2019-05-18T02:42:43.288Z,1.67
2019-05-18T02:45:12.185Z,1.50
2019-05-18T02:47:40.883Z,1.60
2019-05-18T02:50:09.995Z,1.37
2019-05-18T02:52:38.739Z,1.10
2019-05-18T02:55:08.538Z,1.40
2019-05-18T02:57:37.278Z,1.47
2019-05-18T03:00:10.368Z,1.50
2019-05-18T03:02:39.043Z,1.60
2019-05-18T03:05:08.146Z,1.53
2019-05-18T03:07:36.859Z,1.70
2019-05-18T03:10:07.349Z,1.50
2019-05-18T03:12:36.143Z,1.30
2019-05-18T03:15:06.576Z,1.33
2019-05-18T03:17:35.576Z,1.50
2019-05-18T03:20:06.059Z,1.20
2019-05-18T03:22:34.763Z,1.40
2019-05-18T03:25:05.128Z,1.60
2019-05-18T03:27:33.844Z,1.57
2019-05-18T03:30:02.981Z,1.70
2019-05-18T03:32:31.687Z,1.53
2019-05-18T03:35:00.414Z,1.30
2019-05-18T03:37:29.076Z,1.50
2019-05-18T03:39:57.781Z,1.40
2019-05-18T03:42:26.476Z,1.50
2019-05-18T03:45:14.448Z,1.60
2019-05-18T03:47:43.192Z,2.00
2019-05-18T03:50:12.480Z,1.53
2019-05-18T03:52:41.209Z,1.47
2019-05-18T03:55:09.976Z,1.80
2019-05-18T03:57:38.687Z,1.80
2019-05-18T04:00:11.357Z,1.60
2019-05-18T04:02:40.281Z,1.67
2019-05-18T04:05:09.077Z,1.40
2019-05-18T04:07:37.789Z,1.60
2019-05-18T04:10:07.287Z,1.70
2019-05-18T04:12:35.983Z,1.60
2019-05-18T04:15:05.984Z,1.70
2019-05-18T04:17:34.675Z,1.63
2019-05-18T04:20:05.212Z,1.70
2019-05-18T04:22:33.912Z,1.90
2019-05-18T04:25:02.603Z,1.70
2019-05-18T04:27:31.303Z,1.93
2019-05-18T04:29:59.993Z,1.83
2019-05-18T04:32:28.693Z,1.97
2019-05-18T04:34:57.403Z,1.80
2019-05-18T04:37:26.096Z,1.77
2019-05-18T04:39:54.792Z,1.60
2019-05-18T04:42:23.523Z,1.77
2019-05-18T04:44:52.224Z,1.70
2019-05-18T04:47:20.916Z,2.00
2019-05-18T04:50:04.617Z,1.97
2019-05-18T04:52:19.959Z,2.20
2019-05-18T04:54:48.661Z,2.10
2019-05-18T04:57:17.391Z,2.27
2019-05-18T04:59:46.023Z,2.57
2019-05-18T05:02:14.786Z,2.57
2019-05-18T05:04:43.447Z,2.37
2019-05-18T05:07:12.192Z,2.30
2019-05-18T05:09:41.177Z,2.70
2019-05-18T05:12:09.871Z,3.20
2019-05-18T05:14:38.571Z,2.80
2019-05-18T05:17:07.269Z,2.63
2019-05-18T05:19:35.964Z,3.20
2019-05-18T05:22:04.671Z,3.00
2019-05-18T05:24:33.379Z,3.60
2019-05-18T05:27:02.087Z,3.70
2019-05-18T05:29:30.784Z,3.80
2019-05-18T05:31:59.491Z,3.77
2019-05-18T05:34:28.188Z,3.40
2019-05-18T05:36:56.893Z,3.43
2019-05-18T05:39:25.593Z,3.70
2019-05-18T05:41:54.299Z,3.47
2019-05-18T05:44:23.007Z,3.90
2019-05-18T05:46:51.704Z,4.37
2019-05-18T05:49:20.408Z,3.67
2019-05-18T05:51:49.103Z,4.20
2019-05-18T05:54:17.814Z,3.30
2019-05-18T05:56:46.507Z,2.90
2019-05-18T05:59:15.256Z,3.73
2019-05-18T06:01:43.951Z,3.40
2019-05-18T06:04:12.757Z,3.07
2019-05-18T06:06:41.459Z,3.20
2019-05-18T06:09:10.158Z,3.43
2019-05-18T06:11:38.864Z,3.17
2019-05-18T06:14:07.560Z,3.33
2019-05-18T06:16:36.274Z,3.00
2019-05-18T06:19:05.011Z,2.70
2019-05-18T06:21:33.731Z,2.67
2019-05-18T06:24:02.516Z,2.60
2019-05-18T06:26:31.152Z,2.60
2019-05-18T06:28:59.787Z,2.93
2019-05-18T06:31:28.475Z,2.77
2019-05-18T06:33:57.183Z,2.40
2019-05-18T06:36:25.885Z,2.80
2019-05-18T06:38:54.579Z,3.33
2019-05-18T06:41:23.441Z,2.62
2019-05-18T06:43:52.351Z,2.70
2019-05-18T06:46:21.047Z,2.67
2019-05-18T06:48:49.817Z,2.90
2019-05-18T06:51:18.547Z,2.70
2019-05-18T06:53:47.291Z,2.50
2019-05-18T06:56:16.600Z,2.80
2019-05-18T06:58:45.699Z,2.70
2019-05-18T07:01:14.395Z,2.40
2019-05-18T07:03:45.036Z,2.50
2019-05-18T07:06:13.448Z,3.15
2019-05-18T07:08:42.219Z,2.60
2019-05-18T07:11:10.948Z,2.90
2019-05-18T07:13:39.623Z,2.80
2019-05-18T07:16:08.327Z,2.83
2019-05-18T07:18:37.027Z,2.72
2019-05-18T07:21:05.731Z,2.40
2019-05-18T07:23:34.451Z,2.58
2019-05-18T07:26:03.167Z,2.92
2019-05-18T07:28:31.878Z,2.90
2019-05-18T07:31:00.503Z,2.87
2019-05-18T07:33:29.189Z,2.70
2019-05-18T07:35:58.042Z,3.20
2019-05-18T07:38:26.735Z,2.92
2019-05-18T07:40:55.431Z,2.72
2019-05-18T07:43:24.135Z,3.10
2019-05-18T07:45:52.835Z,2.92
2019-05-18T07:48:21.539Z,3.60
2019-05-18T07:50:50.253Z,3.90
2019-05-18T07:53:19.048Z,4.55
2019-05-18T07:55:47.743Z,4.42
2019-05-18T07:58:16.442Z,4.58
2019-05-18T08:00:45.151Z,4.72
2019-05-18T08:03:13.852Z,4.80
2019-05-18T08:05:42.556Z,4.08
2019-05-18T08:08:11.256Z,3.95
2019-05-18T08:10:43.498Z,3.98
2019-05-18T08:13:10.717Z,4.58
2019-05-18T08:15:39.415Z,4.37
2019-05-18T08:18:08.132Z,4.10
2019-05-18T08:20:36.857Z,4.37
2019-05-18T08:23:05.552Z,4.00
2019-05-18T08:25:34.247Z,3.60
2019-05-18T08:28:02.961Z,4.28
2019-05-18T08:30:31.707Z,3.80
2019-05-18T08:33:00.373Z,3.60
2019-05-18T08:35:29.075Z,3.80
2019-05-18T08:37:57.810Z,3.55
2019-05-18T08:40:26.505Z,3.75
2019-05-18T08:42:55.237Z,4.05
2019-05-18T08:45:24.148Z,4.12
2019-05-18T08:47:52.844Z,4.83
2019-05-18T08:50:21.552Z,4.78
2019-05-18T08:52:50.320Z,4.95
2019-05-18T08:55:19.527Z,5.83
2019-05-18T08:57:48.240Z,6.37
2019-05-18T09:00:17.342Z,7.28
2019-05-18T09:02:46.043Z,7.47
2019-05-18T09:05:14.949Z,7.87
2019-05-18T09:07:43.648Z,7.55
2019-05-18T09:10:12.596Z,7.03
2019-05-18T09:12:41.291Z,7.50
2019-05-18T09:15:11.492Z,7.10
2019-05-18T09:17:40.201Z,7.72
2019-05-18T09:20:28.199Z,7.87
2019-05-18T09:22:56.903Z,7.67
2019-05-18T09:25:25.671Z,7.65
2019-05-18T09:27:54.458Z,7.17
2019-05-18T09:30:23.144Z,7.22
2019-05-18T09:32:51.843Z,6.83
2019-05-18T09:35:20.747Z,6.72
2019-05-18T09:37:49.445Z,7.05
2019-05-18T09:40:18.352Z,6.97
2019-05-18T09:42:47.051Z,7.72
2019-05-18T09:45:17.535Z,7.17
2019-05-18T09:47:46.341Z,7.00
2019-05-18T09:50:15.051Z,7.28
2019-05-18T09:52:45.768Z,7.25
2019-05-18T09:55:14.413Z,6.90
2019-05-18T09:57:43.116Z,6.83
2019-05-18T10:00:12.989Z,7.25
2019-05-18T10:02:41.694Z,6.90
2019-05-18T10:05:10.795Z,6.58
2019-05-18T10:07:39.703Z,6.17
2019-05-18T10:10:08.918Z,5.67
2019-05-18T10:12:37.987Z,5.70
2019-05-18T10:15:09.759Z,6.25
2019-05-18T10:17:38.464Z,5.78
2019-05-18T10:20:07.883Z,5.08
2019-05-18T10:22:36.579Z,4.90
2019-05-18T10:25:07.367Z,4.97
2019-05-18T10:27:36.058Z,4.20
2019-05-18T10:30:06.832Z,4.35
2019-05-18T10:32:35.622Z,4.55
2019-05-18T10:35:08.102Z,4.20
2019-05-18T10:37:36.893Z,3.70
2019-05-18T10:40:07.906Z,4.03
2019-05-18T10:42:36.668Z,4.45
2019-05-18T10:45:06.772Z,4.12
2019-05-18T10:47:35.468Z,4.15
2019-05-18T10:50:05.678Z,4.10
2019-05-18T10:52:34.367Z,4.15
2019-05-18T10:55:03.339Z,4.37
2019-05-18T10:57:32.036Z,4.17
2019-05-18T11:00:00.743Z,3.90
2019-05-18T11:02:29.451Z,4.42
2019-05-18T11:04:58.144Z,4.08
2019-05-18T11:07:28.963Z,4.37
2019-05-18T11:09:57.191Z,4.00
2019-05-18T11:12:25.898Z,4.50
2019-05-18T11:14:54.627Z,4.92
2019-05-18T11:17:23.328Z,5.20
2019-05-18T11:19:52.059Z,4.60
2019-05-18T11:22:20.727Z,5.17
2019-05-18T11:24:49.429Z,5.15
2019-05-18T11:27:18.128Z,4.50
2019-05-18T11:29:46.831Z,5.12
2019-05-18T11:32:15.528Z,5.65
2019-05-18T11:34:44.236Z,5.85
2019-05-18T11:37:12.937Z,5.22
2019-05-18T11:39:41.645Z,5.78
2019-05-18T11:42:10.336Z,5.25
2019-05-18T11:44:39.039Z,5.53
2019-05-18T11:47:07.744Z,5.25
2019-05-18T11:49:36.479Z,5.53
2019-05-18T11:52:05.264Z,5.28
2019-05-18T11:54:33.966Z,5.47
2019-05-18T11:57:02.834Z,5.85
2019-05-18T11:59:31.499Z,5.97
2019-05-18T12:02:00.199Z,5.90
2019-05-18T12:04:28.895Z,5.78
2019-05-18T12:06:57.667Z,5.80
2019-05-18T12:09:26.374Z,5.90
2019-05-18T12:11:55.062Z,6.10
2019-05-18T12:14:23.865Z,5.87
2019-05-18T12:16:52.575Z,5.50
2019-05-18T12:19:21.263Z,5.70
2019-05-18T12:21:49.969Z,5.78
2019-05-18T12:24:18.740Z,5.55
2019-05-18T12:26:47.439Z,5.85
2019-05-18T12:29:16.218Z,5.95
2019-05-18T12:31:44.908Z,5.92
2019-05-18T12:34:13.607Z,6.35
2019-05-18T12:36:42.316Z,6.45
2019-05-18T12:39:11.043Z,7.15
2019-05-18T12:41:39.727Z,6.75
2019-05-18T12:44:08.431Z,7.12
2019-05-18T12:46:37.149Z,7.15
2019-05-18T12:49:05.844Z,6.33
2019-05-18T12:51:34.543Z,6.40
2019-05-18T12:54:03.253Z,6.75
2019-05-18T12:56:32.048Z,7.37
2019-05-18T12:59:00.752Z,7.08
2019-05-18T13:01:29.449Z,7.25
2019-05-18T13:03:58.208Z,7.60
2019-05-18T13:06:26.905Z,7.45
2019-05-18T13:08:55.603Z,7.40
2019-05-18T13:11:24.381Z,7.33
2019-05-18T13:13:53.091Z,7.12
2019-05-18T13:16:21.795Z,6.40
2019-05-18T13:18:50.500Z,6.35
2019-05-18T13:21:19.204Z,7.30
2019-05-18T13:23:47.895Z,6.62
2019-05-18T13:26:16.613Z,6.00
2019-05-18T13:28:45.311Z,5.62
2019-05-18T13:31:14.012Z,5.58
2019-05-18T13:33:42.712Z,5.12
2019-05-18T13:36:11.413Z,5.40
2019-05-18T13:38:40.147Z,5.40
2019-05-18T13:41:08.863Z,5.78
2019-05-18T13:43:37.620Z,4.85
2019-05-18T13:46:06.337Z,4.97
2019-05-18T13:48:35.031Z,5.50
2019-05-18T13:51:03.735Z,5.00
2019-05-18T13:53:32.435Z,5.60
2019-05-18T13:56:01.143Z,5.45
2019-05-18T13:58:29.843Z,4.90
2019-05-18T14:00:58.548Z,5.40
2019-05-18T14:03:27.252Z,4.92
2019-05-18T14:05:55.955Z,4.92
2019-05-18T14:08:27.585Z,5.12
2019-05-18T14:10:56.279Z,5.58
2019-05-18T14:13:24.992Z,5.00
2019-05-18T14:15:53.759Z,4.97
2019-05-18T14:18:22.537Z,5.20
2019-05-18T14:20:51.296Z,5.08
2019-05-18T14:23:19.970Z,4.90
2019-05-18T14:25:48.672Z,5.15
2019-05-18T14:28:17.383Z,5.03
2019-05-18T14:30:46.101Z,5.70
2019-05-18T14:33:14.887Z,5.30
2019-05-18T14:35:43.603Z,5.15
2019-05-18T14:38:12.312Z,5.28
2019-05-18T14:40:41.021Z,5.25
2019-05-18T14:43:09.716Z,5.72
2019-05-18T14:45:38.531Z,5.55
2019-05-18T14:48:07.222Z,5.72
2019-05-18T14:50:35.929Z,5.97
2019-05-18T14:53:04.734Z,5.85
2019-05-18T14:55:34.166Z,6.00
2019-05-18T14:58:03.022Z,5.33
2019-05-18T15:00:31.699Z,6.08
2019-05-18T15:03:00.419Z,6.10
2019-05-18T15:05:29.101Z,6.28
2019-05-18T15:07:58.103Z,6.20
2019-05-18T15:10:26.795Z,6.60
2019-05-18T15:12:55.507Z,5.53
2019-05-18T15:15:24.313Z,6.00
2019-05-18T15:17:53.070Z,6.20
2019-05-18T15:20:21.767Z,6.10
2019-05-18T15:22:50.473Z,5.50
2019-05-18T15:25:19.348Z,5.55
2019-05-18T15:27:48.131Z,5.60
2019-05-18T15:30:18.596Z,5.80
2019-05-18T15:32:47.307Z,5.42
2019-05-18T15:35:16.211Z,5.67
2019-05-18T15:37:44.916Z,6.78
2019-05-18T15:40:13.915Z,5.45
2019-05-18T15:42:42.623Z,5.67
2019-05-18T15:45:11.586Z,5.42
2019-05-18T15:47:40.275Z,5.50
2019-05-18T15:50:09.689Z,5.92
2019-05-18T15:52:38.589Z,6.00
2019-05-18T15:55:08.472Z,5.35
2019-05-18T15:57:37.409Z,5.33
2019-05-18T16:00:08.225Z,5.37
2019-05-18T16:02:37.067Z,5.72
2019-05-18T16:05:06.577Z,5.65
2019-05-18T16:07:35.286Z,5.53
2019-05-18T16:10:04.509Z,5.05
2019-05-18T16:12:33.199Z,4.72
2019-05-18T16:15:01.904Z,4.60
2019-05-18T16:17:38.799Z,4.08
2019-05-18T16:20:01.024Z,4.50
2019-05-18T16:22:29.736Z,4.67
2019-05-18T16:24:58.467Z,4.47
2019-05-18T16:27:27.203Z,4.17
2019-05-18T16:29:55.872Z,4.50
2019-05-18T16:32:24.660Z,4.55
2019-05-18T16:34:53.343Z,4.08
2019-05-18T16:37:22.116Z,4.42
2019-05-18T16:39:50.963Z,4.40
2019-05-18T16:42:19.639Z,3.77
2019-05-18T16:44:48.339Z,4.25
2019-05-18T16:47:17.044Z,4.37
2019-05-18T16:49:45.906Z,3.70
2019-05-18T16:52:14.604Z,4.15
2019-05-18T16:54:43.299Z,4.17
2019-05-18T16:57:12.004Z,4.17
2019-05-18T16:59:40.714Z,4.35
2019-05-18T17:02:09.435Z,3.72
2019-05-18T17:04:38.142Z,3.55
2019-05-18T17:07:06.838Z,3.80
2019-05-18T17:09:35.627Z,3.60
2019-05-18T17:12:04.332Z,3.72
2019-05-18T17:14:33.031Z,3.67
2019-05-18T17:17:01.735Z,3.55
2019-05-18T17:19:30.447Z,3.65
2019-05-18T17:21:59.167Z,3.50
2019-05-18T17:24:27.795Z,3.72
2019-05-18T17:26:56.551Z,3.70
2019-05-18T17:29:25.259Z,3.50
2019-05-18T17:31:53.964Z,4.08
2019-05-18T17:34:22.675Z,3.80
2019-05-18T17:36:52.616Z,3.83
2019-05-18T17:39:21.475Z,3.90
2019-05-18T17:41:50.179Z,3.80
2019-05-18T17:44:18.911Z,3.80
2019-05-18T17:46:47.627Z,3.33
2019-05-18T17:49:26.345Z,3.42
2019-05-18T17:51:46.713Z,3.92
2019-05-18T17:54:15.375Z,3.60
2019-05-18T17:56:44.043Z,3.72
2019-05-18T17:59:12.743Z,3.92
2019-05-18T18:01:41.635Z,3.90
2019-05-18T18:04:10.331Z,3.75
2019-05-18T18:06:39.027Z,3.90
2019-05-18T18:09:08.927Z,4.28
2019-05-18T18:11:37.623Z,3.80
2019-05-18T18:14:07.131Z,3.90
2019-05-18T18:16:36.042Z,4.12
2019-05-18T18:19:04.723Z,3.98
2019-05-18T18:21:33.501Z,3.77
2019-05-18T18:24:02.287Z,3.98
2019-05-18T18:26:30.947Z,3.85
2019-05-18T18:28:59.735Z,3.90
2019-05-18T18:31:28.430Z,3.85
2019-05-18T18:33:57.199Z,4.17
2019-05-18T18:36:25.899Z,4.23
2019-05-18T18:38:54.595Z,4.20
2019-05-18T18:41:23.300Z,4.30
2019-05-18T18:43:51.995Z,4.20
2019-05-18T18:46:20.703Z,4.30
2019-05-18T18:48:49.397Z,4.50
2019-05-18T18:51:18.106Z,5.30
2019-05-18T18:53:46.805Z,4.33
2019-05-18T18:56:15.581Z,4.17
2019-05-18T18:58:44.271Z,4.30
2019-05-18T19:01:13.348Z,4.53
2019-05-18T19:03:42.111Z,4.15
2019-05-18T19:06:10.816Z,6.07
2019-05-18T19:08:39.515Z,4.63
2019-05-18T19:11:08.231Z,4.50
2019-05-18T19:13:36.948Z,5.10
2019-05-18T19:16:05.641Z,5.20
2019-05-18T19:18:34.393Z,5.03
2019-05-18T19:21:03.120Z,5.13
2019-05-18T19:23:31.895Z,5.85
2019-05-18T19:26:00.588Z,5.08
2019-05-18T19:28:29.291Z,5.10
2019-05-18T19:30:57.997Z,5.53
2019-05-18T19:33:26.691Z,5.55
2019-05-18T19:35:55.412Z,5.92
2019-05-18T19:38:24.128Z,6.20
2019-05-18T19:40:52.819Z,5.97
2019-05-18T19:43:40.792Z,6.25
2019-05-18T19:46:09.559Z,6.58
2019-05-18T19:48:38.336Z,7.08
2019-05-18T19:51:07.036Z,6.90
2019-05-18T19:53:35.744Z,6.97
2019-05-18T19:56:04.447Z,6.63
2019-05-18T19:58:33.172Z,7.10
2019-05-18T20:01:01.874Z,6.77
2019-05-18T20:03:30.576Z,6.50
2019-05-18T20:05:59.272Z,7.25
2019-05-18T20:08:27.980Z,8.00
2019-05-18T20:10:56.704Z,7.67
2019-05-18T20:13:25.402Z,8.15
2019-05-18T20:15:54.108Z,8.08
2019-05-18T20:18:22.806Z,8.90
2019-05-18T20:20:51.511Z,7.37
2019-05-18T20:23:20.211Z,7.67
2019-05-18T20:25:49.140Z,8.40
2019-05-18T20:28:23.652Z,7.53
2019-05-18T20:30:48.374Z,7.67
2019-05-18T20:33:17.200Z,7.90
2019-05-18T20:35:45.906Z,7.40
2019-05-18T20:38:14.649Z,7.60
2019-05-18T20:40:43.341Z,7.53
2019-05-18T20:43:12.111Z,6.17
2019-05-18T20:45:40.812Z,7.03
2019-05-18T20:48:09.516Z,6.97
2019-05-18T20:50:38.223Z,6.77
2019-05-18T20:53:06.919Z,7.10
2019-05-18T20:55:35.640Z,7.43
2019-05-18T20:58:04.345Z,7.30
2019-05-18T21:00:33.043Z,7.37
2019-05-18T21:03:01.757Z,7.00
2019-05-18T21:05:30.549Z,7.70
2019-05-18T21:07:59.327Z,7.60
2019-05-18T21:10:28.020Z,7.83
2019-05-18T21:12:56.788Z,7.40
2019-05-18T21:15:25.723Z,7.53
2019-05-18T21:17:54.430Z,7.80
2019-05-18T21:20:23.123Z,7.57
2019-05-18T21:22:51.884Z,8.30
2019-05-18T21:25:20.588Z,7.97
2019-05-18T21:27:49.283Z,9.20
2019-05-18T21:30:17.987Z,9.03
2019-05-18T21:32:46.766Z,9.37
2019-05-18T21:35:15.458Z,8.73
2019-05-18T21:37:44.231Z,8.47
2019-05-18T21:40:13.319Z,8.73
2019-05-18T21:42:42.108Z,8.20
2019-05-18T21:45:11.223Z,9.10
2019-05-18T21:47:39.843Z,8.53
2019-05-18T21:50:08.840Z,7.97
2019-05-18T21:52:37.547Z,8.23
2019-05-18T21:55:06.850Z,8.53
2019-05-18T21:57:35.621Z,8.90
2019-05-18T22:00:05.615Z,9.57
2019-05-18T22:02:34.371Z,10.33
2019-05-18T22:05:03.243Z,9.33
2019-05-18T22:07:31.943Z,10.20
2019-05-18T22:10:00.712Z,10.13
2019-05-18T22:12:29.413Z,9.50
2019-05-18T22:14:58.299Z,9.27
2019-05-18T22:17:26.991Z,10.00
2019-05-18T22:19:55.687Z,9.67
2019-05-18T22:22:24.396Z,9.97
2019-05-18T22:24:53.132Z,10.13
2019-05-18T22:27:21.900Z,9.83
2019-05-18T22:29:50.599Z,9.80
2019-05-18T22:32:19.291Z,9.70
2019-05-18T22:34:48.005Z,10.07
2019-05-18T22:37:16.703Z,9.60
2019-05-18T22:39:45.403Z,9.57
2019-05-18T22:42:14.104Z,10.83
2019-05-18T22:44:42.892Z,10.87
2019-05-18T22:47:11.601Z,11.10
2019-05-18T22:49:40.312Z,10.87
2019-05-18T22:52:09.009Z,9.87
2019-05-18T22:54:37.779Z,10.90
2019-05-18T22:57:06.472Z,11.00
2019-05-18T22:59:35.179Z,12.63
2019-05-18T23:02:03.893Z,12.27
2019-05-18T23:04:33.503Z,12.27
2019-05-18T23:07:02.403Z,11.40
2019-05-18T23:09:31.095Z,14.13
2019-05-18T23:11:59.811Z,13.20
2019-05-18T23:14:28.524Z,12.57
2019-05-18T23:16:57.431Z,12.13
2019-05-18T23:19:26.131Z,12.83
2019-05-18T23:21:54.831Z,12.80
2019-05-18T23:24:23.548Z,11.93
2019-05-18T23:26:52.247Z,11.30
2019-05-18T23:29:20.960Z,11.10
2019-05-18T23:31:49.662Z,11.97
2019-05-18T23:34:18.432Z,11.63
2019-05-18T23:36:47.128Z,11.20
2019-05-18T23:39:15.828Z,11.40
2019-05-18T23:41:44.536Z,11.10
2019-05-18T23:44:13.243Z,10.07
2019-05-18T23:46:42.115Z,11.27
2019-05-18T23:49:11.363Z,11.80
2019-05-18T23:51:40.252Z,12.80
2019-05-18T23:54:08.960Z,13.30
2019-05-18T23:56:37.899Z,13.33
2019-05-18T23:59:06.594Z,13.30
